sensor_id;sensor_type;location;lat;lon;timestamp;P1;durP1;ratioP1;P2;durP2;ratioP2
76848;SDS011;65814;51.134;16.980;2022-12-29T00:02:12;3.90;;;1.90;;
76848;SDS011;65814;51.134;16.980;2022-12-29T00:04:39;4.40;;;2.10;;
76848;SDS011;65814;51.134;16.980;2022-12-29T00:07:05;3.70;;;2.10;;
76848;SDS011;65814;51.134;16.980;2022-12-29T00:09:33;3.80;;;2.20;;
76848;SDS011;65814;51.134;16.980;2022-12-29T00:12:00;2.60;;;1.80;;
76848;SDS011;65814;51.134;16.980;2022-12-29T00:14:28;4.30;;;2.10;;
76848;SDS011;65814;51.134;16.980;2022-12-29T00:17:13;3.90;;;2.30;;
76848;SDS011;65814;51.134;16.980;2022-12-29T00:19:40;8.20;;;3.00;;
76848;SDS011;65814;51.134;16.980;2022-12-29T00:25:11;4.30;;;2.60;;
76848;SDS011;65814;51.134;16.980;2022-12-29T00:27:58;5.50;;;3.00;;
76848;SDS011;65814;51.134;16.980;2022-12-29T00:30:43;5.40;;;2.50;;
76848;SDS011;65814;51.134;16.980;2022-12-29T00:33:29;5.10;;;2.70;;
76848;SDS011;65814;51.134;16.980;2022-12-29T00:36:21;4.20;;;2.90;;
76848;SDS011;65814;51.134;16.980;2022-12-29T00:38:52;3.20;;;2.50;;
76848;SDS011;65814;51.134;16.980;2022-12-29T00:41:40;5.40;;;3.10;;
76848;SDS011;65814;51.134;16.980;2022-12-29T00:44:25;4.50;;;2.80;;
76848;SDS011;65814;51.134;16.980;2022-12-29T00:46:51;4.10;;;2.60;;
76848;SDS011;65814;51.134;16.980;2022-12-29T00:49:18;4.10;;;2.80;;
76848;SDS011;65814;51.134;16.980;2022-12-29T00:51:58;3.70;;;2.30;;
76848;SDS011;65814;51.134;16.980;2022-12-29T00:54:33;5.20;;;2.80;;
76848;SDS011;65814;51.134;16.980;2022-12-29T00:57:04;5.20;;;2.80;;
76848;SDS011;65814;51.134;16.980;2022-12-29T00:59:34;4.80;;;2.60;;
76848;SDS011;65814;51.134;16.980;2022-12-29T01:02:01;4.70;;;2.70;;
76848;SDS011;65814;51.134;16.980;2022-12-29T01:04:28;4.00;;;2.40;;
76848;SDS011;65814;51.134;16.980;2022-12-29T01:06:55;4.00;;;2.80;;
76848;SDS011;65814;51.134;16.980;2022-12-29T01:09:21;4.20;;;2.40;;
76848;SDS011;65814;51.134;16.980;2022-12-29T01:12:07;3.90;;;2.40;;
76848;SDS011;65814;51.134;16.980;2022-12-29T01:14:34;3.60;;;2.60;;
76848;SDS011;65814;51.134;16.980;2022-12-29T01:19:28;3.50;;;2.40;;
76848;SDS011;65814;51.134;16.980;2022-12-29T01:21:54;4.80;;;2.60;;
76848;SDS011;65814;51.134;16.980;2022-12-29T01:24:21;3.60;;;2.80;;
76848;SDS011;65814;51.134;16.980;2022-12-29T01:29:14;4.00;;;2.30;;
76848;SDS011;65814;51.134;16.980;2022-12-29T01:31:41;3.90;;;2.20;;
76848;SDS011;65814;51.134;16.980;2022-12-29T01:34:07;3.70;;;2.40;;
76848;SDS011;65814;51.134;16.980;2022-12-29T01:36:34;4.70;;;2.50;;
76848;SDS011;65814;51.134;16.980;2022-12-29T01:39:00;3.60;;;2.00;;
76848;SDS011;65814;51.134;16.980;2022-12-29T01:41:27;3.20;;;2.10;;
76848;SDS011;65814;51.134;16.980;2022-12-29T01:43:55;3.40;;;1.80;;
76848;SDS011;65814;51.134;16.980;2022-12-29T01:46:26;3.50;;;2.30;;
76848;SDS011;65814;51.134;16.980;2022-12-29T01:51:37;3.00;;;2.10;;
76848;SDS011;65814;51.134;16.980;2022-12-29T01:54:07;2.80;;;1.90;;
76848;SDS011;65814;51.134;16.980;2022-12-29T01:56:39;6.00;;;2.40;;
76848;SDS011;65814;51.134;16.980;2022-12-29T01:59:07;4.00;;;2.10;;
76848;SDS011;65814;51.134;16.980;2022-12-29T02:01:38;5.50;;;2.20;;
76848;SDS011;65814;51.134;16.980;2022-12-29T02:04:04;3.70;;;2.00;;
76848;SDS011;65814;51.134;16.980;2022-12-29T02:09:00;3.50;;;2.10;;
76848;SDS011;65814;51.134;16.980;2022-12-29T02:11:27;2.90;;;2.50;;
76848;SDS011;65814;51.134;16.980;2022-12-29T02:13:55;3.40;;;2.40;;
76848;SDS011;65814;51.134;16.980;2022-12-29T02:22:14;3.20;;;1.80;;
76848;SDS011;65814;51.134;16.980;2022-12-29T02:42:36;2.20;;;1.70;;
76848;SDS011;65814;51.134;16.980;2022-12-29T02:45:32;4.70;;;2.00;;
76848;SDS011;65814;51.134;16.980;2022-12-29T02:48:04;2.10;;;1.40;;
76848;SDS011;65814;51.134;16.980;2022-12-29T02:50:57;3.10;;;1.90;;
76848;SDS011;65814;51.134;16.980;2022-12-29T02:53:27;4.10;;;1.80;;
76848;SDS011;65814;51.134;16.980;2022-12-29T02:56:14;3.30;;;1.70;;
76848;SDS011;65814;51.134;16.980;2022-12-29T03:03:45;4.30;;;2.30;;
76848;SDS011;65814;51.134;16.980;2022-12-29T03:11:58;3.10;;;1.80;;
76848;SDS011;65814;51.134;16.980;2022-12-29T03:14:45;3.00;;;1.70;;
76848;SDS011;65814;51.134;16.980;2022-12-29T03:17:55;2.30;;;1.70;;
76848;SDS011;65814;51.134;16.980;2022-12-29T03:20:24;4.30;;;2.00;;
76848;SDS011;65814;51.134;16.980;2022-12-29T03:22:53;3.00;;;1.60;;
76848;SDS011;65814;51.134;16.980;2022-12-29T03:25:30;2.20;;;1.60;;
76848;SDS011;65814;51.134;16.980;2022-12-29T03:28:00;4.20;;;1.70;;
76848;SDS011;65814;51.134;16.980;2022-12-29T03:30:28;2.50;;;1.50;;
76848;SDS011;65814;51.134;16.980;2022-12-29T03:32:57;2.30;;;1.50;;
76848;SDS011;65814;51.134;16.980;2022-12-29T03:35:26;2.50;;;1.50;;
76848;SDS011;65814;51.134;16.980;2022-12-29T03:37:58;2.70;;;1.60;;
76848;SDS011;65814;51.134;16.980;2022-12-29T03:40:26;2.40;;;1.50;;
76848;SDS011;65814;51.134;16.980;2022-12-29T03:42:54;3.60;;;2.10;;
76848;SDS011;65814;51.134;16.980;2022-12-29T03:45:21;2.70;;;2.00;;
76848;SDS011;65814;51.134;16.980;2022-12-29T03:47:47;2.50;;;1.80;;
76848;SDS011;65814;51.134;16.980;2022-12-29T03:50:14;4.50;;;2.30;;
76848;SDS011;65814;51.134;16.980;2022-12-29T03:52:40;3.40;;;2.40;;
76848;SDS011;65814;51.134;16.980;2022-12-29T03:55:07;3.10;;;1.90;;
76848;SDS011;65814;51.134;16.980;2022-12-29T03:57:34;4.60;;;2.20;;
76848;SDS011;65814;51.134;16.980;2022-12-29T04:00:01;3.40;;;2.10;;
76848;SDS011;65814;51.134;16.980;2022-12-29T04:02:27;3.10;;;2.20;;
76848;SDS011;65814;51.134;16.980;2022-12-29T04:04:55;3.10;;;2.00;;
76848;SDS011;65814;51.134;16.980;2022-12-29T04:07:21;3.10;;;1.90;;
76848;SDS011;65814;51.134;16.980;2022-12-29T04:09:48;3.00;;;2.10;;
76848;SDS011;65814;51.134;16.980;2022-12-29T04:12:15;2.50;;;1.80;;
76848;SDS011;65814;51.134;16.980;2022-12-29T04:14:41;3.70;;;2.00;;
76848;SDS011;65814;51.134;16.980;2022-12-29T04:17:07;3.10;;;2.10;;
76848;SDS011;65814;51.134;16.980;2022-12-29T04:19:34;3.10;;;2.10;;
76848;SDS011;65814;51.134;16.980;2022-12-29T04:22:00;4.40;;;2.30;;
76848;SDS011;65814;51.134;16.980;2022-12-29T04:24:27;4.40;;;2.30;;
76848;SDS011;65814;51.134;16.980;2022-12-29T04:26:53;3.70;;;2.10;;
76848;SDS011;65814;51.134;16.980;2022-12-29T04:29:20;3.90;;;2.60;;
76848;SDS011;65814;51.134;16.980;2022-12-29T04:31:46;3.40;;;2.20;;
76848;SDS011;65814;51.134;16.980;2022-12-29T04:34:13;3.70;;;2.00;;
76848;SDS011;65814;51.134;16.980;2022-12-29T04:36:40;2.90;;;1.70;;
76848;SDS011;65814;51.134;16.980;2022-12-29T04:39:06;2.60;;;2.10;;
76848;SDS011;65814;51.134;16.980;2022-12-29T04:44:00;6.40;;;2.80;;
76848;SDS011;65814;51.134;16.980;2022-12-29T04:46:26;3.60;;;1.90;;
76848;SDS011;65814;51.134;16.980;2022-12-29T04:48:53;2.80;;;2.00;;
76848;SDS011;65814;51.134;16.980;2022-12-29T04:51:19;3.90;;;2.00;;
76848;SDS011;65814;51.134;16.980;2022-12-29T04:53:46;3.20;;;1.70;;
76848;SDS011;65814;51.134;16.980;2022-12-29T04:56:12;3.80;;;2.30;;
76848;SDS011;65814;51.134;16.980;2022-12-29T04:58:39;2.80;;;2.10;;
76848;SDS011;65814;51.134;16.980;2022-12-29T05:01:05;2.10;;;1.70;;
76848;SDS011;65814;51.134;16.980;2022-12-29T05:03:31;2.80;;;1.90;;
76848;SDS011;65814;51.134;16.980;2022-12-29T05:08:25;1.90;;;1.60;;
76848;SDS011;65814;51.134;16.980;2022-12-29T05:10:54;3.60;;;2.10;;
76848;SDS011;65814;51.134;16.980;2022-12-29T05:13:20;2.50;;;1.60;;
76848;SDS011;65814;51.134;16.980;2022-12-29T05:15:49;3.00;;;1.70;;
76848;SDS011;65814;51.134;16.980;2022-12-29T05:18:17;3.10;;;1.70;;
76848;SDS011;65814;51.134;16.980;2022-12-29T05:23:10;4.40;;;1.60;;
76848;SDS011;65814;51.134;16.980;2022-12-29T05:25:37;3.40;;;1.70;;
76848;SDS011;65814;51.134;16.980;2022-12-29T05:28:05;2.90;;;1.70;;
76848;SDS011;65814;51.134;16.980;2022-12-29T05:30:31;2.80;;;1.70;;
76848;SDS011;65814;51.134;16.980;2022-12-29T05:32:58;2.70;;;1.60;;
76848;SDS011;65814;51.134;16.980;2022-12-29T05:35:24;3.00;;;1.80;;
76848;SDS011;65814;51.134;16.980;2022-12-29T05:37:51;4.70;;;2.10;;
76848;SDS011;65814;51.134;16.980;2022-12-29T05:40:18;4.00;;;1.80;;
76848;SDS011;65814;51.134;16.980;2022-12-29T05:42:44;3.60;;;2.00;;
76848;SDS011;65814;51.134;16.980;2022-12-29T05:45:11;2.80;;;2.00;;
76848;SDS011;65814;51.134;16.980;2022-12-29T05:50:04;3.60;;;1.90;;
76848;SDS011;65814;51.134;16.980;2022-12-29T05:52:30;3.20;;;2.10;;
76848;SDS011;65814;51.134;16.980;2022-12-29T05:54:57;2.20;;;1.70;;
76848;SDS011;65814;51.134;16.980;2022-12-29T05:57:23;2.70;;;1.60;;
76848;SDS011;65814;51.134;16.980;2022-12-29T05:59:50;3.10;;;1.90;;
76848;SDS011;65814;51.134;16.980;2022-12-29T06:02:16;4.50;;;2.20;;
76848;SDS011;65814;51.134;16.980;2022-12-29T06:07:09;3.90;;;1.60;;
76848;SDS011;65814;51.134;16.980;2022-12-29T06:09:36;3.40;;;2.20;;
76848;SDS011;65814;51.134;16.980;2022-12-29T06:12:03;2.80;;;1.90;;
76848;SDS011;65814;51.134;16.980;2022-12-29T06:14:29;3.60;;;2.20;;
76848;SDS011;65814;51.134;16.980;2022-12-29T06:19:22;3.40;;;2.20;;
76848;SDS011;65814;51.134;16.980;2022-12-29T06:21:49;2.90;;;2.10;;
76848;SDS011;65814;51.134;16.980;2022-12-29T06:24:15;3.00;;;2.00;;
76848;SDS011;65814;51.134;16.980;2022-12-29T06:26:42;2.70;;;2.10;;
76848;SDS011;65814;51.134;16.980;2022-12-29T06:29:08;3.40;;;2.40;;
76848;SDS011;65814;51.134;16.980;2022-12-29T06:31:35;3.50;;;2.20;;
76848;SDS011;65814;51.134;16.980;2022-12-29T06:34:02;3.80;;;2.70;;
76848;SDS011;65814;51.134;16.980;2022-12-29T06:36:34;5.10;;;2.40;;
76848;SDS011;65814;51.134;16.980;2022-12-29T06:39:01;4.20;;;2.40;;
76848;SDS011;65814;51.134;16.980;2022-12-29T06:41:27;3.50;;;2.40;;
76848;SDS011;65814;51.134;16.980;2022-12-29T06:43:58;3.80;;;2.60;;
76848;SDS011;65814;51.134;16.980;2022-12-29T06:46:25;5.90;;;2.60;;
76848;SDS011;65814;51.134;16.980;2022-12-29T06:48:51;4.40;;;3.10;;
76848;SDS011;65814;51.134;16.980;2022-12-29T06:51:18;4.70;;;2.90;;
76848;SDS011;65814;51.134;16.980;2022-12-29T06:53:45;3.90;;;2.80;;
76848;SDS011;65814;51.134;16.980;2022-12-29T06:56:11;4.70;;;2.60;;
76848;SDS011;65814;51.134;16.980;2022-12-29T06:58:37;4.20;;;2.90;;
76848;SDS011;65814;51.134;16.980;2022-12-29T07:03:31;3.70;;;2.40;;
76848;SDS011;65814;51.134;16.980;2022-12-29T07:05:57;4.30;;;2.20;;
76848;SDS011;65814;51.134;16.980;2022-12-29T07:08:24;3.30;;;2.00;;
76848;SDS011;65814;51.134;16.980;2022-12-29T07:10:50;3.90;;;2.10;;
76848;SDS011;65814;51.134;16.980;2022-12-29T07:13:17;3.40;;;2.00;;
76848;SDS011;65814;51.134;16.980;2022-12-29T07:15:43;4.80;;;2.50;;
76848;SDS011;65814;51.134;16.980;2022-12-29T07:18:10;2.50;;;1.80;;
76848;SDS011;65814;51.134;16.980;2022-12-29T07:20:36;3.50;;;2.10;;
76848;SDS011;65814;51.134;16.980;2022-12-29T07:23:03;4.00;;;1.90;;
76848;SDS011;65814;51.134;16.980;2022-12-29T07:25:29;2.30;;;1.50;;
76848;SDS011;65814;51.134;16.980;2022-12-29T07:27:56;4.50;;;1.80;;
76848;SDS011;65814;51.134;16.980;2022-12-29T07:32:51;3.30;;;2.00;;
76848;SDS011;65814;51.134;16.980;2022-12-29T07:35:17;2.70;;;2.20;;
76848;SDS011;65814;51.134;16.980;2022-12-29T07:37:44;2.40;;;1.60;;
76848;SDS011;65814;51.134;16.980;2022-12-29T07:40:11;3.20;;;2.40;;
76848;SDS011;65814;51.134;16.980;2022-12-29T07:42:38;4.00;;;2.10;;
76848;SDS011;65814;51.134;16.980;2022-12-29T07:47:32;3.50;;;2.70;;
76848;SDS011;65814;51.134;16.980;2022-12-29T07:49:58;3.00;;;1.80;;
76848;SDS011;65814;51.134;16.980;2022-12-29T07:52:25;4.80;;;2.10;;
76848;SDS011;65814;51.134;16.980;2022-12-29T07:57:18;3.00;;;1.60;;
76848;SDS011;65814;51.134;16.980;2022-12-29T07:59:44;4.40;;;2.20;;
76848;SDS011;65814;51.134;16.980;2022-12-29T08:02:11;2.40;;;1.70;;
76848;SDS011;65814;51.134;16.980;2022-12-29T08:04:38;2.50;;;1.80;;
76848;SDS011;65814;51.134;16.980;2022-12-29T08:07:05;4.90;;;2.10;;
76848;SDS011;65814;51.134;16.980;2022-12-29T08:09:31;4.70;;;2.10;;
76848;SDS011;65814;51.134;16.980;2022-12-29T08:11:58;3.00;;;2.00;;
76848;SDS011;65814;51.134;16.980;2022-12-29T08:14:25;2.80;;;1.60;;
76848;SDS011;65814;51.134;16.980;2022-12-29T08:16:51;3.50;;;1.90;;
76848;SDS011;65814;51.134;16.980;2022-12-29T08:19:17;4.10;;;2.20;;
76848;SDS011;65814;51.134;16.980;2022-12-29T08:21:44;4.20;;;2.10;;
76848;SDS011;65814;51.134;16.980;2022-12-29T08:26:38;2.80;;;2.00;;
76848;SDS011;65814;51.134;16.980;2022-12-29T08:29:04;2.70;;;1.90;;
76848;SDS011;65814;51.134;16.980;2022-12-29T08:31:31;3.00;;;1.80;;
76848;SDS011;65814;51.134;16.980;2022-12-29T08:33:58;3.00;;;2.30;;
76848;SDS011;65814;51.134;16.980;2022-12-29T08:36:26;2.60;;;2.10;;
76848;SDS011;65814;51.134;16.980;2022-12-29T08:38:52;5.20;;;2.50;;
76848;SDS011;65814;51.134;16.980;2022-12-29T08:41:19;3.00;;;1.80;;
76848;SDS011;65814;51.134;16.980;2022-12-29T08:43:46;3.70;;;1.90;;
76848;SDS011;65814;51.134;16.980;2022-12-29T08:46:13;4.60;;;2.40;;
76848;SDS011;65814;51.134;16.980;2022-12-29T08:51:06;5.00;;;2.20;;
76848;SDS011;65814;51.134;16.980;2022-12-29T08:53:33;3.70;;;2.30;;
76848;SDS011;65814;51.134;16.980;2022-12-29T08:56:00;4.50;;;2.30;;
76848;SDS011;65814;51.134;16.980;2022-12-29T08:58:31;3.00;;;2.10;;
76848;SDS011;65814;51.134;16.980;2022-12-29T09:00:58;5.30;;;2.80;;
76848;SDS011;65814;51.134;16.980;2022-12-29T09:03:25;5.40;;;2.60;;
76848;SDS011;65814;51.134;16.980;2022-12-29T09:06:11;5.30;;;2.60;;
76848;SDS011;65814;51.134;16.980;2022-12-29T09:08:38;4.60;;;2.90;;
76848;SDS011;65814;51.134;16.980;2022-12-29T09:11:09;4.90;;;3.10;;
76848;SDS011;65814;51.134;16.980;2022-12-29T09:13:37;5.00;;;3.10;;
76848;SDS011;65814;51.134;16.980;2022-12-29T09:16:04;4.60;;;3.00;;
76848;SDS011;65814;51.134;16.980;2022-12-29T09:18:31;4.60;;;2.80;;
76848;SDS011;65814;51.134;16.980;2022-12-29T09:20:59;4.20;;;2.60;;
76848;SDS011;65814;51.134;16.980;2022-12-29T09:23:26;3.50;;;2.60;;
76848;SDS011;65814;51.134;16.980;2022-12-29T09:25:53;5.20;;;3.20;;
76848;SDS011;65814;51.134;16.980;2022-12-29T09:28:21;3.80;;;2.50;;
76848;SDS011;65814;51.134;16.980;2022-12-29T09:30:48;5.50;;;3.10;;
76848;SDS011;65814;51.134;16.980;2022-12-29T09:33:15;5.50;;;3.00;;
76848;SDS011;65814;51.134;16.980;2022-12-29T09:35:45;5.00;;;3.20;;
76848;SDS011;65814;51.134;16.980;2022-12-29T09:38:17;5.50;;;2.90;;
76848;SDS011;65814;51.134;16.980;2022-12-29T09:40:44;4.70;;;3.30;;
76848;SDS011;65814;51.134;16.980;2022-12-29T09:51:45;4.80;;;2.40;;
76848;SDS011;65814;51.134;16.980;2022-12-29T09:54:29;4.10;;;2.60;;
76848;SDS011;65814;51.134;16.980;2022-12-29T09:56:58;4.00;;;2.50;;
76848;SDS011;65814;51.134;16.980;2022-12-29T09:59:26;2.80;;;2.40;;
76848;SDS011;65814;51.134;16.980;2022-12-29T10:02:18;3.80;;;2.70;;
76848;SDS011;65814;51.134;16.980;2022-12-29T10:04:50;2.50;;;2.00;;
76848;SDS011;65814;51.134;16.980;2022-12-29T10:15:43;6.70;;;2.40;;
76848;SDS011;65814;51.134;16.980;2022-12-29T10:18:44;5.50;;;2.90;;
76848;SDS011;65814;51.134;16.980;2022-12-29T10:21:42;3.50;;;2.90;;
76848;SDS011;65814;51.134;16.980;2022-12-29T10:24:20;7.50;;;2.70;;
76848;SDS011;65814;51.134;16.980;2022-12-29T10:26:48;3.90;;;2.50;;
76848;SDS011;65814;51.134;16.980;2022-12-29T10:29:18;4.40;;;2.50;;
76848;SDS011;65814;51.134;16.980;2022-12-29T10:31:58;5.20;;;2.80;;
76848;SDS011;65814;51.134;16.980;2022-12-29T10:34:41;4.40;;;2.70;;
76848;SDS011;65814;51.134;16.980;2022-12-29T10:37:18;4.00;;;2.50;;
76848;SDS011;65814;51.134;16.980;2022-12-29T10:40:14;4.10;;;2.50;;
76848;SDS011;65814;51.134;16.980;2022-12-29T10:42:46;3.20;;;2.00;;
76848;SDS011;65814;51.134;16.980;2022-12-29T10:45:18;4.00;;;2.20;;
76848;SDS011;65814;51.134;16.980;2022-12-29T10:47:53;3.10;;;2.20;;
76848;SDS011;65814;51.134;16.980;2022-12-29T10:50:23;4.30;;;2.20;;
76848;SDS011;65814;51.134;16.980;2022-12-29T10:52:51;3.00;;;1.90;;
76848;SDS011;65814;51.134;16.980;2022-12-29T10:55:31;3.60;;;2.20;;
76848;SDS011;65814;51.134;16.980;2022-12-29T10:58:00;3.70;;;2.00;;
76848;SDS011;65814;51.134;16.980;2022-12-29T11:00:31;3.90;;;2.40;;
76848;SDS011;65814;51.134;16.980;2022-12-29T11:06:03;2.80;;;1.80;;
76848;SDS011;65814;51.134;16.980;2022-12-29T11:08:36;3.40;;;2.60;;
76848;SDS011;65814;51.134;16.980;2022-12-29T11:11:06;2.90;;;2.60;;
76848;SDS011;65814;51.134;16.980;2022-12-29T11:13:35;4.70;;;2.30;;
76848;SDS011;65814;51.134;16.980;2022-12-29T11:16:13;3.30;;;2.60;;
76848;SDS011;65814;51.134;16.980;2022-12-29T11:18:40;4.20;;;2.60;;
76848;SDS011;65814;51.134;16.980;2022-12-29T11:21:30;3.00;;;1.90;;
76848;SDS011;65814;51.134;16.980;2022-12-29T11:24:03;3.00;;;2.20;;
76848;SDS011;65814;51.134;16.980;2022-12-29T11:26:31;5.10;;;2.70;;
76848;SDS011;65814;51.134;16.980;2022-12-29T11:31:30;3.70;;;2.50;;
76848;SDS011;65814;51.134;16.980;2022-12-29T11:33:57;4.20;;;2.40;;
76848;SDS011;65814;51.134;16.980;2022-12-29T11:38:52;3.80;;;2.30;;
76848;SDS011;65814;51.134;16.980;2022-12-29T11:41:25;3.90;;;2.30;;
76848;SDS011;65814;51.134;16.980;2022-12-29T11:43:58;4.10;;;2.60;;
76848;SDS011;65814;51.134;16.980;2022-12-29T11:46:27;3.30;;;2.10;;
76848;SDS011;65814;51.134;16.980;2022-12-29T11:48:57;3.30;;;2.30;;
76848;SDS011;65814;51.134;16.980;2022-12-29T11:51:34;3.40;;;2.20;;
76848;SDS011;65814;51.134;16.980;2022-12-29T11:54:03;5.40;;;2.20;;
76848;SDS011;65814;51.134;16.980;2022-12-29T11:56:33;5.80;;;2.80;;
76848;SDS011;65814;51.134;16.980;2022-12-29T12:01:53;3.40;;;2.40;;
76848;SDS011;65814;51.134;16.980;2022-12-29T12:04:21;3.10;;;1.90;;
76848;SDS011;65814;51.134;16.980;2022-12-29T12:09:29;4.20;;;2.20;;
76848;SDS011;65814;51.134;16.980;2022-12-29T12:11:58;3.50;;;2.50;;
76848;SDS011;65814;51.134;16.980;2022-12-29T12:14:34;5.10;;;2.40;;
76848;SDS011;65814;51.134;16.980;2022-12-29T12:17:04;3.10;;;2.10;;
76848;SDS011;65814;51.134;16.980;2022-12-29T12:19:50;3.30;;;2.00;;
76848;SDS011;65814;51.134;16.980;2022-12-29T12:22:34;3.60;;;2.40;;
76848;SDS011;65814;51.134;16.980;2022-12-29T12:25:14;2.90;;;2.30;;
76848;SDS011;65814;51.134;16.980;2022-12-29T12:30:16;4.00;;;2.20;;
76848;SDS011;65814;51.134;16.980;2022-12-29T12:41:42;3.30;;;2.10;;
76848;SDS011;65814;51.134;16.980;2022-12-29T12:43:56;3.10;;;2.10;;
76848;SDS011;65814;51.134;16.980;2022-12-29T12:49:20;2.90;;;2.30;;
76848;SDS011;65814;51.134;16.980;2022-12-29T13:00:33;3.50;;;2.40;;
76848;SDS011;65814;51.134;16.980;2022-12-29T13:03:13;4.90;;;2.10;;
76848;SDS011;65814;51.134;16.980;2022-12-29T13:06:07;4.70;;;2.80;;
76848;SDS011;65814;51.134;16.980;2022-12-29T13:08:49;3.30;;;2.30;;
76848;SDS011;65814;51.134;16.980;2022-12-29T13:11:25;3.50;;;2.10;;
76848;SDS011;65814;51.134;16.980;2022-12-29T13:19:17;4.20;;;2.50;;
76848;SDS011;65814;51.134;16.980;2022-12-29T13:27:28;5.30;;;2.40;;
76848;SDS011;65814;51.134;16.980;2022-12-29T13:30:14;3.80;;;2.50;;
76848;SDS011;65814;51.134;16.980;2022-12-29T13:33:20;5.60;;;2.50;;
76848;SDS011;65814;51.134;16.980;2022-12-29T13:37:10;5.10;;;2.60;;
76848;SDS011;65814;51.134;16.980;2022-12-29T13:39:32;4.50;;;2.90;;
76848;SDS011;65814;51.134;16.980;2022-12-29T13:42:07;4.00;;;2.30;;
76848;SDS011;65814;51.134;16.980;2022-12-29T13:44:37;7.10;;;2.90;;
76848;SDS011;65814;51.134;16.980;2022-12-29T13:49:48;4.10;;;2.80;;
76848;SDS011;65814;51.134;16.980;2022-12-29T13:52:39;5.30;;;3.10;;
76848;SDS011;65814;51.134;16.980;2022-12-29T13:58:32;6.10;;;2.50;;
76848;SDS011;65814;51.134;16.980;2022-12-29T14:01:07;6.20;;;3.10;;
76848;SDS011;65814;51.134;16.980;2022-12-29T14:03:42;5.00;;;3.00;;
76848;SDS011;65814;51.134;16.980;2022-12-29T14:08:55;4.90;;;2.80;;
76848;SDS011;65814;51.134;16.980;2022-12-29T14:13:58;5.70;;;2.70;;
76848;SDS011;65814;51.134;16.980;2022-12-29T14:18:53;5.20;;;2.80;;
76848;SDS011;65814;51.134;16.980;2022-12-29T14:21:24;4.00;;;2.40;;
76848;SDS011;65814;51.134;16.980;2022-12-29T14:24:02;4.90;;;2.80;;
76848;SDS011;65814;51.134;16.980;2022-12-29T14:34:53;4.40;;;2.90;;
76848;SDS011;65814;51.134;16.980;2022-12-29T14:37:25;8.60;;;2.80;;
76848;SDS011;65814;51.134;16.980;2022-12-29T14:40:06;5.60;;;3.20;;
76848;SDS011;65814;51.134;16.980;2022-12-29T14:42:45;5.70;;;3.70;;
76848;SDS011;65814;51.134;16.980;2022-12-29T14:50:17;5.00;;;3.70;;
76848;SDS011;65814;51.134;16.980;2022-12-29T14:55:41;5.60;;;4.10;;
76848;SDS011;65814;51.134;16.980;2022-12-29T14:58:14;6.50;;;4.10;;
76848;SDS011;65814;51.134;16.980;2022-12-29T15:00:43;8.30;;;4.30;;
76848;SDS011;65814;51.134;16.980;2022-12-29T15:06:06;5.30;;;3.70;;
76848;SDS011;65814;51.134;16.980;2022-12-29T15:08:38;6.50;;;4.30;;
76848;SDS011;65814;51.134;16.980;2022-12-29T15:14:02;6.90;;;4.60;;
76848;SDS011;65814;51.134;16.980;2022-12-29T15:18:57;8.40;;;5.60;;
76848;SDS011;65814;51.134;16.980;2022-12-29T15:21:29;7.30;;;4.90;;
76848;SDS011;65814;51.134;16.980;2022-12-29T15:23:56;8.90;;;6.10;;
76848;SDS011;65814;51.134;16.980;2022-12-29T15:28:51;7.60;;;5.30;;
76848;SDS011;65814;51.134;16.980;2022-12-29T15:31:20;7.60;;;4.80;;
76848;SDS011;65814;51.134;16.980;2022-12-29T15:34:02;10.10;;;5.00;;
76848;SDS011;65814;51.134;16.980;2022-12-29T15:36:37;7.40;;;5.40;;
76848;SDS011;65814;51.134;16.980;2022-12-29T15:39:47;7.10;;;5.20;;
76848;SDS011;65814;51.134;16.980;2022-12-29T15:44:45;8.20;;;5.60;;
76848;SDS011;65814;51.134;16.980;2022-12-29T15:49:49;7.00;;;5.30;;
76848;SDS011;65814;51.134;16.980;2022-12-29T15:52:18;6.30;;;5.10;;
76848;SDS011;65814;51.134;16.980;2022-12-29T15:54:48;10.50;;;5.60;;
76848;SDS011;65814;51.134;16.980;2022-12-29T15:57:23;7.70;;;5.80;;
76848;SDS011;65814;51.134;16.980;2022-12-29T16:02:24;8.30;;;5.50;;
76848;SDS011;65814;51.134;16.980;2022-12-29T16:04:52;7.60;;;5.80;;
76848;SDS011;65814;51.134;16.980;2022-12-29T16:07:38;8.30;;;5.60;;
76848;SDS011;65814;51.134;16.980;2022-12-29T16:10:37;8.10;;;6.10;;
76848;SDS011;65814;51.134;16.980;2022-12-29T16:13:15;7.60;;;5.40;;
76848;SDS011;65814;51.134;16.980;2022-12-29T16:15:52;8.90;;;6.30;;
76848;SDS011;65814;51.134;16.980;2022-12-29T16:18:26;9.90;;;5.90;;
76848;SDS011;65814;51.134;16.980;2022-12-29T16:21:02;8.80;;;6.50;;
76848;SDS011;65814;51.134;16.980;2022-12-29T16:23:32;8.20;;;6.30;;
76848;SDS011;65814;51.134;16.980;2022-12-29T16:26:02;8.00;;;6.10;;
76848;SDS011;65814;51.134;16.980;2022-12-29T16:28:38;11.20;;;6.30;;
76848;SDS011;65814;51.134;16.980;2022-12-29T16:33:45;10.00;;;6.40;;
76848;SDS011;65814;51.134;16.980;2022-12-29T16:36:22;7.90;;;5.70;;
76848;SDS011;65814;51.134;16.980;2022-12-29T16:39:04;7.30;;;5.80;;
76848;SDS011;65814;51.134;16.980;2022-12-29T16:41:48;8.10;;;5.90;;
76848;SDS011;65814;51.134;16.980;2022-12-29T16:44:29;9.50;;;6.50;;
76848;SDS011;65814;51.134;16.980;2022-12-29T16:46:58;8.50;;;6.00;;
76848;SDS011;65814;51.134;16.980;2022-12-29T16:49:28;7.90;;;6.20;;
76848;SDS011;65814;51.134;16.980;2022-12-29T16:51:56;9.10;;;6.40;;
76848;SDS011;65814;51.134;16.980;2022-12-29T16:54:33;7.70;;;5.90;;
76848;SDS011;65814;51.134;16.980;2022-12-29T17:01:59;8.90;;;5.70;;
76848;SDS011;65814;51.134;16.980;2022-12-29T17:04:28;8.10;;;6.30;;
76848;SDS011;65814;51.134;16.980;2022-12-29T17:06:55;8.40;;;6.20;;
76848;SDS011;65814;51.134;16.980;2022-12-29T17:09:25;9.70;;;6.60;;
76848;SDS011;65814;51.134;16.980;2022-12-29T17:11:54;9.00;;;6.70;;
76848;SDS011;65814;51.134;16.980;2022-12-29T17:14:40;7.20;;;5.70;;
76848;SDS011;65814;51.134;16.980;2022-12-29T17:22:21;11.00;;;5.80;;
76848;SDS011;65814;51.134;16.980;2022-12-29T17:24:53;8.10;;;6.00;;
76848;SDS011;65814;51.134;16.980;2022-12-29T17:27:21;8.80;;;6.20;;
76848;SDS011;65814;51.134;16.980;2022-12-29T17:29:52;9.70;;;6.80;;
76848;SDS011;65814;51.134;16.980;2022-12-29T17:32:19;9.00;;;6.20;;
76848;SDS011;65814;51.134;16.980;2022-12-29T17:34:46;8.90;;;6.60;;
76848;SDS011;65814;51.134;16.980;2022-12-29T17:37:32;8.20;;;6.50;;
76848;SDS011;65814;51.134;16.980;2022-12-29T17:40:01;8.80;;;6.20;;
76848;SDS011;65814;51.134;16.980;2022-12-29T17:42:29;8.20;;;6.10;;
76848;SDS011;65814;51.134;16.980;2022-12-29T17:45:00;8.40;;;6.20;;
76848;SDS011;65814;51.134;16.980;2022-12-29T17:47:27;9.80;;;6.80;;
76848;SDS011;65814;51.134;16.980;2022-12-29T17:49:53;9.90;;;7.40;;
76848;SDS011;65814;51.134;16.980;2022-12-29T17:54:49;10.30;;;8.00;;
76848;SDS011;65814;51.134;16.980;2022-12-29T17:57:18;10.90;;;8.70;;
76848;SDS011;65814;51.134;16.980;2022-12-29T17:59:45;11.50;;;7.10;;
76848;SDS011;65814;51.134;16.980;2022-12-29T18:04:52;11.70;;;8.00;;
76848;SDS011;65814;51.134;16.980;2022-12-29T18:09:46;8.30;;;6.20;;
76848;SDS011;65814;51.134;16.980;2022-12-29T18:12:58;10.30;;;6.40;;
76848;SDS011;65814;51.134;16.980;2022-12-29T18:15:16;10.50;;;7.00;;
76848;SDS011;65814;51.134;16.980;2022-12-29T18:17:45;9.60;;;6.20;;
76848;SDS011;65814;51.134;16.980;2022-12-29T18:22:38;9.00;;;6.30;;
76848;SDS011;65814;51.134;16.980;2022-12-29T18:25:13;10.00;;;6.30;;
76848;SDS011;65814;51.134;16.980;2022-12-29T18:27:46;9.20;;;7.10;;
76848;SDS011;65814;51.134;16.980;2022-12-29T18:30:13;10.40;;;7.50;;